Dryad, Washington
Current Conditions -  °F | °C
As of 8:35 PM on Friday 19 Dec 2014 (Local Time) from KCLS Reporting Station
Overcast Overcast  
Wind Chill: 46°   Ceiling: 8500
Heat Index: 48°   Visibility: 10mi
Dew Point: 43°   Wind: 6mph
Humidity: 82%   Direction: 200°SSW
Pressure: 29.92"   Gusts: NA
Location:  46.6561°N, 122.993°W
Report Text: KCLS 200435Z AUTO 20005KT 10SM FEW028 SCT049 OVC085 09/06 A2992 RMK AO2
Loading
Personal Weather Stations






























Interactive Weather Map New forecast layout! Learn more

10-Day Weather Forecast

Advertisements
Track Severe Weather on mobile